CPX412 Details

Departure: Washington Dulles International Airport (KIAD)
Arrival: Miami International Airport (KMIA) at N/A
Route: JDUBB2 GSO J75 CAE J51 SAV J103 OMN HILEY7
Notes:


Current Weather Information
KIAD 230752Z 00000KT 10SM R01R/5500VP6000FT MIFG CLR 07/07 A2991 RMK AO2 SLP129 T00720067 $
KMIA 230753Z 02003KT 10SM FEW009 FEW015 26/23 A2996 RMK AO2 SLP145 T02610228